Decoded Metar for LYKV (KRALJEVO/LADEVCI in SERBIA) (IATA:N/A) | Meteo·Mobile Aviation Weather
aviador You're here:

LYKV Decoded Metar

KRALJEVO/LADEVCI in SERBIA
Report Time2019-07-19 18:00:00
UTC Time2019-07-19 18:27:06
Flight Rules vfr VFR
WindCalm
Visibility9999 m
Phenomena:N/A
Clouds:Scattered 040 Hf
Expected CloudBase > 3,200 ft AGL from Temp-Dew spread
CeilingNone
Temp25°C (ISA +11)
Dew Point17°C (61% RH)
QNH1017 hPa
Density Alt2,136 ft
Elevation694 ft
Report Wrong Elevation
Raw Report
METAR LYKV 191800Z 00000KT 9999 SCT040 25/17 Q1017 NOSIG=

Extra information for LYKV:More info

Metar Taf Metar & Taf Last 4 Metars F.Rules Stats Wind Profile Meteogram Temp Stats Airport Information Weather charts Add Link Nearby VenuesMetar ALERT Operation Metar Decoded Social comments